Somers, IA (50586)

1:02 AM CDT on October 26, 2014 (GMT -0500)
Lohrville NE | Change Station
CLOSE
Current Station
Personal Weather Station
Location: Lohrville, IA
Elevation: 1170 ft
Nearby Weather Stations

Elev 1170 ft 42.28 °N, 94.49 °W | Updated 11 seconds ago

Clear
Clear
46.9 °F
Feels Like 47 °F
N
0.0
Wind Variable Wind from ENE
Gusts 0.0 mph

Today
High -- | Low -- °F
--% Chance of Precip.
Yesterday
High -- | Low -- °F
Precip. -- in
7:43 AM 6:18 PM
Waxing Crescent, 6% visible
Pressure 30.05 in
Visibility 10.0 miles
Clouds Clear
Windchill 47 °F
Dew Point 35 °F
Humidity 62%
Rainfall 0.00 in
Snow Depth Not available.
UV 0 out of 12
Pollen 1.90 out of 12
Air Quality Not available.
Flu Activity Sporadic
METAR KFOD 260555Z AUTO 00000KT 10SM CLR 03/01 A3005 RMK AO1 10120 20030 57014

More Conditions Fewer Conditions

Pressure 30.05 in
Visibility 10.0 miles
Clouds Clear
Windchill 47 °F
Dew Point 35 °F
Humidity 62%
Rainfall 0.00 in
Snow Depth Not available.
UV 0 out of 12
Pollen 1.90 out of 12
Air Quality Not available.
Flu Activity Sporadic
METAR KFOD 260555Z AUTO 00000KT 10SM CLR 03/01 A3005 RMK AO1 10120 20030 57014

More Conditions Fewer Conditions

10-Day Weather Forecast

Almanac

Astronomy

Oct. 26, 2014 Rise Set
Actual Time 7:43 AM CDT 6:18 PM CDT
Civil Twilight 7:14 AM CDT 6:47 PM CDT
Nautical Twilight 6:41 AM CDT 7:20 PM CDT
Astronomical Twilight 6:09 AM CDT 7:53 PM CDT
Moon 10:24 AM CDT 8:29 PM CDT
Length of Visible Light 11h 32m
Length of Day
10h 35m
Tomorrow will be 2m 37s shorter.
Waxing Crescent, 6% of the Moon is Illuminated
Today
Waxing Crescent
Oct 30
First Quarter
Nov 6
Full
Nov 14
Last Quarter
Nov 22
New

Today's Extremes

State Highs State Lows

Community

WunderPhotos

Upload Photos

1,765,113 photos uploaded!

Nearby

Snow Depth

Station Depth Elevation
No new snow has been reported.

Earthquake Activity

City Distance Mag. Time & Date
No recent earthquake activity has been reported nearby.
Minimum magnitude displayed is 2.5.

Coastal Water Temperatures

Place Temperature
No Stations Reporting

Nearby Weather Stations